createdAt,value
2022-09-25T00:00:50.277Z,98526.06
2022-09-25T00:03:18.244Z,98528.69
2022-09-25T00:05:46.306Z,98522.56
2022-09-25T00:08:14.262Z,98519.88
2022-09-25T00:10:46.850Z,98520.97
2022-09-25T00:13:14.475Z,98518.72
2022-09-25T00:15:49.622Z,98525.03
2022-09-25T00:18:17.330Z,98522.44
2022-09-25T00:20:43.870Z,98526.09
2022-09-25T00:23:10.430Z,98535.91
2022-09-25T00:25:37.072Z,98526.25
2022-09-25T00:28:03.791Z,98528.00
2022-09-25T00:30:33.655Z,98528.88
2022-09-25T00:33:00.344Z,98520.06
2022-09-25T00:35:26.829Z,98524.53
2022-09-25T00:37:53.285Z,98523.63
2022-09-25T00:40:19.915Z,98520.16
2022-09-25T00:42:46.485Z,98516.59
2022-09-25T00:45:19.222Z,98518.34
2022-09-25T00:47:53.167Z,98510.25
2022-09-25T00:50:31.321Z,98519.88
2022-09-25T00:53:06.951Z,98511.00
2022-09-25T00:55:35.962Z,98514.50
2022-09-25T00:58:03.684Z,98509.13
2022-09-25T01:00:32.129Z,98510.88
2022-09-25T01:02:59.354Z,98510.88
2022-09-25T01:05:32.014Z,98510.03
2022-09-25T01:08:02.231Z,98516.16
2022-09-25T01:10:28.740Z,98509.09
2022-09-25T01:12:57.899Z,98514.34
2022-09-25T01:15:53.884Z,98506.38
2022-09-25T01:18:32.463Z,98515.06
2022-09-25T01:21:33.145Z,98512.41
2022-09-25T01:24:41.110Z,98516.03
2022-09-25T01:27:27.308Z,98513.44
2022-09-25T01:30:01.813Z,98509.97
2022-09-25T01:32:28.289Z,98513.41
2022-09-25T01:35:24.094Z,98518.72
2022-09-25T01:37:57.634Z,98517.69
2022-09-25T01:40:33.542Z,98516.59
2022-09-25T01:43:14.783Z,98513.88
2022-09-25T01:45:48.651Z,98513.81
2022-09-25T01:48:18.413Z,98504.97
2022-09-25T01:51:03.183Z,98501.38
2022-09-25T01:53:34.943Z,98503.06
2022-09-25T01:56:07.268Z,98500.34
2022-09-25T01:58:42.015Z,98500.28
2022-09-25T02:01:15.534Z,98502.97
2022-09-25T02:03:48.125Z,98507.31
2022-09-25T02:06:20.049Z,98497.50
2022-09-25T02:09:19.229Z,98499.25
2022-09-25T02:11:50.767Z,98495.75
2022-09-25T02:14:39.392Z,98498.44
2022-09-25T02:17:12.456Z,98496.59
2022-09-25T02:19:57.949Z,98489.59
2022-09-25T02:22:33.255Z,98490.47
2022-09-25T02:25:12.680Z,98483.50
2022-09-25T02:27:39.165Z,98490.75
2022-09-25T02:30:06.265Z,98481.13
2022-09-25T02:32:33.394Z,98482.84
2022-09-25T02:35:00.634Z,98481.03
2022-09-25T02:37:27.426Z,98489.06
2022-09-25T02:39:58.155Z,98481.16
2022-09-25T02:42:50.175Z,98484.72
2022-09-25T02:45:36.574Z,98489.16
2022-09-25T02:48:18.166Z,98483.00
2022-09-25T02:51:05.059Z,98489.06
2022-09-25T02:53:31.441Z,98492.50
2022-09-25T02:56:03.864Z,98493.41
2022-09-25T02:58:42.738Z,98487.19
2022-09-25T03:01:14.729Z,98495.91
2022-09-25T03:03:41.983Z,98492.31
2022-09-25T03:06:10.033Z,98495.78
2022-09-25T03:08:42.768Z,98490.50
2022-09-25T03:11:12.649Z,98490.50
2022-09-25T03:13:40.089Z,98490.56
2022-09-25T03:16:20.322Z,98487.88
2022-09-25T03:18:49.966Z,98496.69
2022-09-25T03:21:16.794Z,98490.44
2022-09-25T03:23:44.241Z,98492.31
2022-09-25T03:26:11.530Z,98501.16
2022-09-25T03:28:38.265Z,98497.63
2022-09-25T03:31:07.908Z,98497.66
2022-09-25T03:33:37.498Z,98497.66
2022-09-25T03:36:19.084Z,98502.91
2022-09-25T03:38:48.208Z,98494.06
2022-09-25T03:41:21.366Z,98494.88
2022-09-25T03:43:51.709Z,98485.13
2022-09-25T03:46:24.258Z,98491.31
2022-09-25T03:48:52.376Z,98486.91
2022-09-25T03:51:19.764Z,98486.00
2022-09-25T03:53:46.694Z,98479.78
2022-09-25T03:56:15.400Z,98480.63
2022-09-25T03:58:41.841Z,98480.63
2022-09-25T04:01:08.758Z,98478.84
2022-09-25T04:03:35.317Z,98471.75
2022-09-25T04:06:06.485Z,98468.22
2022-09-25T04:08:35.247Z,98471.75
2022-09-25T04:11:03.064Z,98476.22
2022-09-25T04:13:38.837Z,98471.81
2022-09-25T04:16:06.794Z,98476.25
2022-09-25T04:18:33.937Z,98471.81
2022-09-25T04:21:03.437Z,98469.22
2022-09-25T04:23:30.506Z,98475.50
2022-09-25T04:25:57.770Z,98473.75
2022-09-25T04:28:25.588Z,98473.78
2022-09-25T04:30:52.071Z,98474.72
2022-09-25T04:33:38.137Z,98472.94
2022-09-25T04:36:05.827Z,98474.59
2022-09-25T04:38:32.605Z,98474.56
2022-09-25T04:41:02.962Z,98478.97
2022-09-25T04:43:30.676Z,98478.03
2022-09-25T04:46:08.489Z,98478.94
2022-09-25T04:48:35.758Z,98471.81
2022-09-25T04:51:04.003Z,98467.41
2022-09-25T04:53:35.069Z,98471.81
2022-09-25T04:56:15.571Z,98468.25
2022-09-25T04:58:47.649Z,98467.41
2022-09-25T05:01:15.789Z,98470.06
2022-09-25T05:03:42.946Z,98470.94
2022-09-25T05:06:09.885Z,98468.28
2022-09-25T05:08:36.415Z,98470.97
2022-09-25T05:11:03.892Z,98466.53
2022-09-25T05:13:30.450Z,98468.34
2022-09-25T05:15:59.672Z,98465.81
2022-09-25T05:18:26.767Z,98463.19
2022-09-25T05:20:54.202Z,98466.75
2022-09-25T05:23:21.267Z,98465.91
2022-09-25T05:26:03.649Z,98478.25
2022-09-25T05:28:31.523Z,98470.34
2022-09-25T05:31:05.117Z,98472.03
2022-09-25T05:33:33.085Z,98472.88
2022-09-25T05:36:04.301Z,98475.44
2022-09-25T05:38:35.769Z,98476.28
2022-09-25T05:41:04.819Z,98474.53
2022-09-25T05:43:32.542Z,98478.91
2022-09-25T05:46:00.461Z,98473.59
2022-09-25T05:48:27.099Z,98479.78
2022-09-25T05:50:57.820Z,98470.06
2022-09-25T05:53:24.996Z,98470.91
2022-09-25T05:55:51.941Z,98481.47
2022-09-25T05:58:19.006Z,98482.34
2022-09-25T06:00:45.682Z,98477.97
2022-09-25T06:03:12.291Z,98478.91
2022-09-25T06:05:40.374Z,98476.25
2022-09-25T06:08:07.816Z,98478.09
2022-09-25T06:10:35.230Z,98479.88
2022-09-25T06:13:04.786Z,98479.06
2022-09-25T06:15:37.722Z,98471.97
2022-09-25T06:18:05.598Z,98469.28
2022-09-25T06:20:32.578Z,98480.78
2022-09-25T06:23:00.666Z,98479.00
2022-09-25T06:25:30.684Z,98474.59
2022-09-25T06:28:00.224Z,98475.50
2022-09-25T06:30:34.423Z,98479.06
2022-09-25T06:33:02.701Z,98472.00
2022-09-25T06:35:29.859Z,98464.84
2022-09-25T06:38:00.732Z,98471.09
2022-09-25T06:40:29.886Z,98476.44
2022-09-25T06:43:03.763Z,98475.53
2022-09-25T06:45:33.731Z,98469.34
2022-09-25T06:48:02.435Z,98477.34
2022-09-25T06:50:42.514Z,98474.75
2022-09-25T06:53:11.042Z,98471.22
2022-09-25T06:55:38.370Z,98472.00
2022-09-25T06:58:06.961Z,98477.22
2022-09-25T07:00:33.603Z,98480.69
2022-09-25T07:03:19.110Z,98479.00
2022-09-25T07:05:48.079Z,98480.00
2022-09-25T07:08:17.611Z,98481.03
2022-09-25T07:10:51.084Z,98485.44
2022-09-25T07:13:18.900Z,98488.13
2022-09-25T07:15:53.030Z,98488.97
2022-09-25T07:18:20.737Z,98490.81
2022-09-25T07:20:47.645Z,98499.66
2022-09-25T07:23:15.315Z,98488.13
2022-09-25T07:25:41.849Z,98481.91
2022-09-25T07:28:09.358Z,98488.97
2022-09-25T07:30:36.078Z,98488.94
2022-09-25T07:33:02.769Z,98488.84
2022-09-25T07:35:29.309Z,98493.13
2022-09-25T07:37:59.116Z,98486.16
2022-09-25T07:40:29.051Z,98482.63
2022-09-25T07:43:02.649Z,98485.28
2022-09-25T07:45:29.214Z,98481.78
2022-09-25T07:48:00.764Z,98481.75
2022-09-25T07:50:28.664Z,98481.69
2022-09-25T07:52:55.204Z,98484.41
2022-09-25T07:55:22.214Z,98487.03
2022-09-25T07:57:50.489Z,98484.47
2022-09-25T08:00:17.645Z,98487.06
2022-09-25T08:02:44.301Z,98489.69
2022-09-25T08:05:11.722Z,98488.81
2022-09-25T08:07:41.151Z,98488.69
2022-09-25T08:10:08.043Z,98493.94
2022-09-25T08:12:34.596Z,98492.91
2022-09-25T08:15:01.031Z,98495.75
2022-09-25T08:17:31.361Z,98501.09
2022-09-25T08:19:58.338Z,98499.31
2022-09-25T08:22:25.201Z,98504.63
2022-09-25T08:24:51.745Z,98497.50
2022-09-25T08:27:18.537Z,98498.41
2022-09-25T08:29:45.124Z,98501.06
2022-09-25T08:32:12.145Z,98507.09
2022-09-25T08:34:41.504Z,98508.91
2022-09-25T08:37:09.660Z,98501.69
2022-09-25T08:39:36.490Z,98505.22
2022-09-25T08:42:03.336Z,98499.06
2022-09-25T08:45:02.372Z,98510.50
2022-09-25T08:47:49.635Z,98504.31
2022-09-25T08:50:22.447Z,98499.94
2022-09-25T08:52:53.808Z,98505.22
2022-09-25T08:55:51.701Z,98505.16
2022-09-25T08:58:24.894Z,98503.44
2022-09-25T09:00:57.738Z,98499.00
2022-09-25T09:03:26.216Z,98510.53
2022-09-25T09:06:01.267Z,98508.69
2022-09-25T09:08:29.895Z,98511.44
2022-09-25T09:11:12.777Z,98511.28
2022-09-25T09:14:04.051Z,98509.50
2022-09-25T09:16:42.115Z,98513.81
2022-09-25T09:19:11.626Z,98520.84
2022-09-25T09:21:40.496Z,98510.34
2022-09-25T09:24:25.362Z,98513.81
2022-09-25T09:27:20.655Z,98512.03
2022-09-25T09:30:09.164Z,98510.38
2022-09-25T09:33:11.516Z,98513.94
2022-09-25T09:36:13.494Z,98510.38
2022-09-25T09:38:53.605Z,98512.97
2022-09-25T09:41:29.289Z,98518.19
2022-09-25T09:44:14.328Z,98519.03
2022-09-25T09:47:17.966Z,98518.91
2022-09-25T09:49:51.050Z,98522.47
2022-09-25T09:52:24.894Z,98518.00
2022-09-25T09:54:53.753Z,98516.03
2022-09-25T09:57:27.351Z,98513.22
2022-09-25T10:00:13.207Z,98507.66
2022-09-25T10:02:43.563Z,98503.22
2022-09-25T10:05:42.526Z,98504.78
2022-09-25T10:08:09.824Z,98503.84
2022-09-25T10:10:45.603Z,98510.09
2022-09-25T10:13:24.897Z,98511.09
2022-09-25T10:16:03.441Z,98512.03
2022-09-25T10:18:37.416Z,98510.38
2022-09-25T10:21:06.676Z,98501.63
2022-09-25T10:23:48.534Z,98505.16
2022-09-25T10:26:31.825Z,98506.06
2022-09-25T10:29:00.308Z,98508.75
2022-09-25T10:31:30.715Z,98510.50
2022-09-25T10:34:13.476Z,98508.81
2022-09-25T10:36:49.453Z,98511.41
2022-09-25T10:39:59.983Z,98502.50
2022-09-25T10:42:41.215Z,98499.69
2022-09-25T10:45:22.987Z,98511.13
2022-09-25T10:48:09.460Z,98509.28
2022-09-25T10:50:39.024Z,98509.00
2022-09-25T10:53:07.439Z,98515.34
2022-09-25T10:55:51.185Z,98508.25
2022-09-25T10:58:23.640Z,98506.44
2022-09-25T11:00:51.060Z,98513.50
2022-09-25T11:03:21.130Z,98504.63
2022-09-25T11:05:53.069Z,98497.47
2022-09-25T11:08:23.691Z,98500.75
2022-09-25T11:10:54.668Z,98494.44
2022-09-25T11:13:28.482Z,98492.53
2022-09-25T11:16:01.389Z,98491.59
2022-09-25T11:18:38.848Z,98489.03
2022-09-25T11:21:16.961Z,98491.69
2022-09-25T11:23:48.652Z,98487.38
2022-09-25T11:26:24.107Z,98484.69
2022-09-25T11:28:57.787Z,98498.97
2022-09-25T11:31:45.314Z,98483.25
2022-09-25T11:34:43.047Z,98487.47
2022-09-25T11:37:29.754Z,98486.28
2022-09-25T11:40:23.729Z,98486.75
2022-09-25T11:43:04.814Z,98481.31
2022-09-25T11:45:46.386Z,98482.19
2022-09-25T11:48:40.284Z,98479.69
2022-09-25T11:51:35.940Z,98477.22
2022-09-25T11:54:31.847Z,98485.25
2022-09-25T11:57:01.269Z,98483.56
2022-09-25T11:59:57.101Z,98478.38
2022-09-25T12:02:40.835Z,98477.44
2022-09-25T12:05:14.361Z,98478.38
2022-09-25T12:08:12.148Z,98475.56
2022-09-25T12:10:52.333Z,98472.06
2022-09-25T12:13:24.748Z,98467.53
2022-09-25T12:15:59.565Z,98472.09
2022-09-25T12:18:47.513Z,98472.19
2022-09-25T12:21:57.225Z,98472.19
2022-09-25T12:24:35.875Z,98467.50
2022-09-25T12:27:05.446Z,98464.91
2022-09-25T12:30:16.195Z,98470.38
2022-09-25T12:33:00.682Z,98461.50
2022-09-25T12:35:51.650Z,98458.88
2022-09-25T12:38:24.192Z,98463.16
2022-09-25T12:40:57.159Z,98453.41
2022-09-25T12:43:34.736Z,98460.44
2022-09-25T12:46:09.714Z,98457.50
2022-09-25T12:48:45.307Z,98458.53
2022-09-25T12:51:17.642Z,98461.00
2022-09-25T12:53:50.834Z,98452.19
2022-09-25T12:56:27.812Z,98453.09
2022-09-25T12:59:13.571Z,98455.78
2022-09-25T13:02:07.124Z,98452.28
2022-09-25T13:04:55.454Z,98458.38
2022-09-25T13:07:50.454Z,98454.66
2022-09-25T13:10:32.906Z,98444.75
2022-09-25T13:13:02.928Z,98455.97
2022-09-25T13:15:33.847Z,98446.13
2022-09-25T13:18:00.786Z,98447.13
2022-09-25T13:20:27.484Z,98444.56
2022-09-25T13:22:58.045Z,98447.56
2022-09-25T13:25:25.912Z,98446.88
2022-09-25T13:27:54.164Z,98435.38
2022-09-25T13:30:28.873Z,98440.44
2022-09-25T13:33:03.187Z,98442.91
2022-09-25T13:35:32.167Z,98444.88
2022-09-25T13:38:36.538Z,98437.13
2022-09-25T13:41:13.440Z,98438.91
2022-09-25T13:43:40.100Z,98433.53
2022-09-25T13:46:23.350Z,98435.25
2022-09-25T13:48:55.661Z,98430.81
2022-09-25T13:51:22.217Z,98434.38
2022-09-25T13:54:11.618Z,98435.22
2022-09-25T13:56:41.123Z,98436.72
2022-09-25T13:59:12.289Z,98429.56
2022-09-25T14:01:53.866Z,98426.00
2022-09-25T14:04:29.309Z,98423.25
2022-09-25T14:07:16.056Z,98419.66
2022-09-25T14:09:55.099Z,98418.81
2022-09-25T14:12:46.248Z,98415.31
2022-09-25T14:15:24.435Z,98409.94
2022-09-25T14:17:53.881Z,98408.06
2022-09-25T14:20:40.576Z,98409.75
2022-09-25T14:23:13.983Z,98395.41
2022-09-25T14:25:44.456Z,98399.97
2022-09-25T14:28:30.367Z,98399.22
2022-09-25T14:31:14.837Z,98400.00
2022-09-25T14:33:47.565Z,98384.19
2022-09-25T14:36:28.702Z,98389.47
2022-09-25T14:39:05.784Z,98381.41
2022-09-25T14:41:52.982Z,98381.47
2022-09-25T14:44:36.637Z,98377.97
2022-09-25T14:47:04.476Z,98371.84
2022-09-25T14:49:37.668Z,98373.59
2022-09-25T14:52:10.939Z,98372.56
2022-09-25T14:54:42.606Z,98361.91
2022-09-25T14:57:10.979Z,98363.66
2022-09-25T14:59:41.894Z,98363.56
2022-09-25T15:02:39.984Z,98363.63
2022-09-25T15:05:19.424Z,98365.50
2022-09-25T15:07:47.333Z,98363.75
2022-09-25T15:10:25.379Z,98359.28
2022-09-25T15:12:51.982Z,98353.09
2022-09-25T15:15:21.257Z,98348.72
2022-09-25T15:17:54.665Z,98346.13
2022-09-25T15:20:24.187Z,98354.09
2022-09-25T15:23:16.678Z,98355.84
2022-09-25T15:25:47.763Z,98344.38
2022-09-25T15:28:18.237Z,98348.88
2022-09-25T15:30:46.410Z,98349.78
2022-09-25T15:33:29.483Z,98355.94
2022-09-25T15:35:58.229Z,98346.19
2022-09-25T15:38:42.093Z,98344.34
2022-09-25T15:41:13.232Z,98340.72
2022-09-25T15:43:39.779Z,98339.84
2022-09-25T15:46:10.183Z,98341.66
2022-09-25T15:48:52.808Z,98333.63
2022-09-25T15:51:22.240Z,98338.00
2022-09-25T15:53:55.705Z,98346.03
2022-09-25T15:56:45.150Z,98337.22
2022-09-25T15:59:19.146Z,98341.66
2022-09-25T16:02:04.295Z,98338.09
2022-09-25T16:04:46.213Z,98339.91
2022-09-25T16:07:23.334Z,98336.44
2022-09-25T16:09:52.069Z,98333.84
2022-09-25T16:12:23.443Z,98333.91
2022-09-25T16:14:50.785Z,98334.91
2022-09-25T16:17:41.295Z,98334.94
2022-09-25T16:20:34.270Z,98335.09
2022-09-25T16:23:04.520Z,98330.72
2022-09-25T16:25:34.747Z,98336.19
2022-09-25T16:28:19.987Z,98333.50
2022-09-25T16:30:50.037Z,98340.63
2022-09-25T16:33:26.481Z,98331.03
2022-09-25T16:36:11.580Z,98331.00
2022-09-25T16:38:40.281Z,98332.94
2022-09-25T16:41:06.752Z,98328.44
2022-09-25T16:43:38.312Z,98329.50
2022-09-25T16:46:25.180Z,98328.69
2022-09-25T16:49:02.049Z,98326.03
2022-09-25T16:51:32.921Z,98319.91
2022-09-25T16:53:59.953Z,98325.31
2022-09-25T16:56:30.089Z,98327.09
2022-09-25T16:58:58.351Z,98325.44
2022-09-25T17:01:27.592Z,98326.38
2022-09-25T17:03:59.696Z,98322.06
2022-09-25T17:06:27.079Z,98325.63
2022-09-25T17:08:53.694Z,98320.38
2022-09-25T17:11:22.009Z,98328.34
2022-09-25T17:13:49.991Z,98324.75
2022-09-25T17:16:16.568Z,98322.94
2022-09-25T17:18:43.257Z,98328.13
2022-09-25T17:21:14.080Z,98331.75
2022-09-25T17:23:40.892Z,98330.81
2022-09-25T17:26:20.745Z,98330.00
2022-09-25T17:28:47.467Z,98332.66
2022-09-25T17:31:16.687Z,98335.34
2022-09-25T17:33:43.221Z,98331.97
2022-09-25T17:36:11.647Z,98334.69
2022-09-25T17:38:38.669Z,98340.06
2022-09-25T17:41:12.441Z,98341.84
2022-09-25T17:43:43.017Z,98335.69
2022-09-25T17:46:10.215Z,98338.41
2022-09-25T17:48:36.778Z,98344.72
2022-09-25T17:51:29.974Z,98343.81
2022-09-25T17:53:57.349Z,98344.66
2022-09-25T17:56:25.355Z,98339.34
2022-09-25T17:58:53.237Z,98345.59
2022-09-25T18:01:22.290Z,98340.34
2022-09-25T18:03:56.585Z,98347.47
2022-09-25T18:06:24.441Z,98347.53
2022-09-25T18:08:52.655Z,98338.72
2022-09-25T18:11:19.526Z,98353.88
2022-09-25T18:13:46.678Z,98349.50
2022-09-25T18:16:27.372Z,98346.03
2022-09-25T18:19:12.788Z,98339.88
2022-09-25T18:21:57.867Z,98338.22
2022-09-25T18:24:24.351Z,98330.31
2022-09-25T18:26:53.376Z,98332.16
2022-09-25T18:29:20.802Z,98341.94
2022-09-25T18:31:48.245Z,98344.59
2022-09-25T18:34:15.538Z,98349.00
2022-09-25T18:36:42.763Z,98341.88
2022-09-25T18:39:09.992Z,98335.63
2022-09-25T18:41:37.829Z,98331.16
2022-09-25T18:44:07.063Z,98334.66
2022-09-25T18:46:38.221Z,98323.94
2022-09-25T18:49:05.975Z,98327.56
2022-09-25T18:51:34.083Z,98326.75
2022-09-25T18:54:00.689Z,98332.09
2022-09-25T18:56:28.155Z,98327.75
2022-09-25T18:58:54.695Z,98324.19
2022-09-25T19:01:21.275Z,98317.06
2022-09-25T19:03:52.098Z,98314.41
2022-09-25T19:06:19.504Z,98331.16
2022-09-25T19:08:52.745Z,98323.25
2022-09-25T19:11:19.591Z,98324.16
2022-09-25T19:13:46.493Z,98325.94
2022-09-25T19:16:13.013Z,98330.53
2022-09-25T19:18:39.561Z,98332.53
2022-09-25T19:21:06.277Z,98332.56
2022-09-25T19:23:35.515Z,98325.41
2022-09-25T19:26:04.977Z,98330.59
2022-09-25T19:28:37.131Z,98327.00
2022-09-25T19:31:18.758Z,98323.50
2022-09-25T19:33:46.068Z,98323.59
2022-09-25T19:36:20.681Z,98327.16
2022-09-25T19:38:47.736Z,98327.16
2022-09-25T19:41:18.060Z,98314.78
2022-09-25T19:43:45.273Z,98322.81
2022-09-25T19:46:14.513Z,98312.25
2022-09-25T19:48:41.105Z,98313.13
2022-09-25T19:51:08.170Z,98307.75
2022-09-25T19:53:36.257Z,98311.34
2022-09-25T19:56:03.495Z,98299.84
2022-09-25T19:58:38.167Z,98315.88
2022-09-25T20:01:12.054Z,98316.00
2022-09-25T20:03:39.325Z,98308.09
2022-09-25T20:06:06.835Z,98311.59
2022-09-25T20:08:34.604Z,98307.13
2022-09-25T20:11:12.532Z,98315.16
2022-09-25T20:13:42.495Z,98309.03
2022-09-25T20:16:11.538Z,98305.63
2022-09-25T20:18:38.079Z,98302.25
2022-09-25T20:21:06.794Z,98305.72
2022-09-25T20:23:33.810Z,98302.22
2022-09-25T20:26:12.054Z,98297.78
2022-09-25T20:28:43.558Z,98280.13
2022-09-25T20:31:14.015Z,98287.31
2022-09-25T20:33:45.073Z,98289.09
2022-09-25T20:36:13.441Z,98290.06
2022-09-25T20:38:40.665Z,98294.63
2022-09-25T20:41:11.163Z,98287.59
2022-09-25T20:43:42.120Z,98284.03
2022-09-25T20:46:11.354Z,98282.31
2022-09-25T20:48:47.090Z,98278.94
2022-09-25T20:51:17.513Z,98279.06
2022-09-25T20:53:49.104Z,98281.75
2022-09-25T20:56:16.487Z,98280.81
2022-09-25T20:58:44.417Z,98279.91
2022-09-25T21:01:13.958Z,98272.84
2022-09-25T21:03:42.947Z,98271.03
2022-09-25T21:06:18.505Z,98274.69
2022-09-25T21:08:45.812Z,98273.09
2022-09-25T21:11:13.319Z,98271.31
2022-09-25T21:13:42.788Z,98268.72
2022-09-25T21:16:12.189Z,98263.47
2022-09-25T21:18:40.757Z,98278.66
2022-09-25T21:21:12.531Z,98271.63
2022-09-25T21:23:40.610Z,98262.66
2022-09-25T21:26:10.504Z,98261.78
2022-09-25T21:28:38.960Z,98268.91
2022-09-25T21:31:10.992Z,98259.16
2022-09-25T21:33:37.682Z,98260.94
2022-09-25T21:36:04.877Z,98257.38
2022-09-25T21:38:34.790Z,98254.75
2022-09-25T21:41:03.591Z,98249.50
2022-09-25T21:43:31.532Z,98254.81
2022-09-25T21:46:03.216Z,98251.34
2022-09-25T21:48:29.940Z,98243.47
2022-09-25T21:50:58.790Z,98244.50
2022-09-25T21:53:26.137Z,98248.00
2022-09-25T21:56:02.654Z,98246.25
2022-09-25T21:58:29.688Z,98245.47
2022-09-25T22:01:11.707Z,98248.19
2022-09-25T22:03:42.068Z,98238.66
2022-09-25T22:06:14.692Z,98236.06
2022-09-25T22:08:45.604Z,98231.63
2022-09-25T22:11:12.336Z,98235.19
2022-09-25T22:13:44.344Z,98234.31
2022-09-25T22:16:21.105Z,98228.16
2022-09-25T22:18:52.382Z,98224.75
2022-09-25T22:21:21.597Z,98229.13
2022-09-25T22:23:48.409Z,98225.53
2022-09-25T22:26:17.157Z,98230.88
2022-09-25T22:28:44.001Z,98229.09
2022-09-25T22:31:19.536Z,98236.16
2022-09-25T22:33:50.333Z,98229.22
2022-09-25T22:36:16.913Z,98224.81
2022-09-25T22:38:43.415Z,98224.81
2022-09-25T22:41:12.831Z,98213.38
2022-09-25T22:43:40.183Z,98215.13
2022-09-25T22:46:08.996Z,98213.38
2022-09-25T22:48:38.965Z,98204.56
2022-09-25T22:51:08.608Z,98208.13
2022-09-25T22:53:36.074Z,98208.22
2022-09-25T22:56:18.302Z,98202.91
2022-09-25T22:58:49.853Z,98202.94
2022-09-25T23:01:44.145Z,98204.72
2022-09-25T23:04:13.667Z,98195.94
2022-09-25T23:06:40.609Z,98195.91
2022-09-25T23:09:11.242Z,98196.00
2022-09-25T23:11:38.142Z,98200.38
2022-09-25T23:14:16.603Z,98200.38
2022-09-25T23:16:44.518Z,98204.69
2022-09-25T23:19:11.327Z,98195.91
2022-09-25T23:21:37.837Z,98200.38
2022-09-25T23:24:07.433Z,98196.81
2022-09-25T23:26:34.231Z,98197.78
2022-09-25T23:29:04.319Z,98192.50
2022-09-25T23:31:32.649Z,98183.72
2022-09-25T23:34:00.433Z,98185.56
2022-09-25T23:36:28.438Z,98186.53
2022-09-25T23:38:56.218Z,98176.00
2022-09-25T23:41:35.802Z,98176.88
2022-09-25T23:44:04.840Z,98168.09
2022-09-25T23:46:37.179Z,98171.72
2022-09-25T23:49:04.547Z,98162.06
2022-09-25T23:51:31.697Z,98160.22
2022-09-25T23:54:00.183Z,98160.16
2022-09-25T23:56:30.268Z,98149.56
2022-09-25T23:58:58.173Z,98151.34
